George Allen — WDF9749 — position and weather

sailwx.info

Track history (hours):
 
Tides and Currents Weather Stations Pressure Air Temp Water Temp Dewpoint Dewpoint Depression Visibility Wind Speed Wind Dir Waves Ship Positions

George Allen

Owner: Blessey Enterprises, Inc., Harahan, LA. More information available from US FCC via Universal Licensing System and Coast Guard Vessel Documentation Center.

Last reported at 2016-Jul-29 20:16 UTC. Time now 2016-Jul-30 22:43 UTC.
Position N 29°53' W 093°56'.

Length 23 m.

Type: Towing. MMSI: 367508440.

Date/timePositionNaut miles runAvg speedWind from/ knotsBaromVisibWave heightAir tempDewpointWater temp
2016-Jul-29 20:16N 29°53' W 093°56'5 6.9
2016-Jul-29 19:33N 29°56' W 093°52'6 5.1
2016-Jul-29 18:23N 29°60' W 093°46'5 5.6
2016-Jul-29 17:33N 30°03' W 093°43'5 5.2
2016-Jul-29 16:33N 30°04' W 093°37'5 5.3
2016-Jul-29 15:33N 30°04' W 093°31'5 5.3
2016-Jul-29 14:33N 30°04' W 093°25'4 4.1
2016-Jul-29 13:34N 30°05' W 093°20'3 3.0
2016-Jul-29 12:33N 30°05' W 093°17'2 2.0
2016-Jul-29 11:33N 30°03' W 093°16'4 4.3
2016-Jul-29 10:33N 29°59' W 093°13'4 4.4
2016-Jul-29 09:33N 29°56' W 093°09'5 4.5
2016-Jul-29 08:33N 29°56' W 093°04'5 5.1
2016-Jul-29 07:33N 29°56' W 092°58'3 3.0
2016-Jul-29 06:33N 29°56' W 092°55'5 4.7
2016-Jul-29 05:33N 29°58' W 092°50'3 2.9
2016-Jul-29 04:33N 29°58' W 092°46'4 4.2
2016-Jul-29 03:33N 29°57' W 092°42'5 4.9
2016-Jul-29 02:33N 29°55' W 092°36'10 4.9
2016-Jul-29 00:33N 29°53' W 092°25'4 4.3
2016-Jul-28 23:33N 29°51' W 092°21'3 2.8
2016-Jul-28 22:33N 29°50' W 092°18'4 4.4
2016-Jul-28 21:33N 29°48' W 092°14'4 3.8
2016-Jul-28 20:33N 29°47' W 092°09'5 5.0
2016-Jul-28 19:33N 29°48' W 092°04'5 4.9
2016-Jul-28 18:33N 29°50' W 091°59'5 5.0
2016-Jul-28 17:33N 29°51' W 091°53'5 4.3
2016-Jul-28 16:25N 29°47' W 091°49'52 4.3
2016-Jul-28 04:21N 29°32' W 090°51'4 4.7
2016-Jul-28 03:33N 29°32' W 090°47'4 3.8
2016-Jul-28 02:33N 29°34' W 090°43'3 3.0
2016-Jul-28 01:33N 29°36' W 090°41'5 4.6
2016-Jul-28 00:33N 29°35' W 090°36'24 3.8
2016-Jul-27 18:11N 29°43' W 090°09'2 3.6
2016-Jul-27 17:32N 29°45' W 090°08'4 3.7
2016-Jul-27 16:26N 29°47' W 090°04'1 1.3
2016-Jul-27 15:30N 29°48' W 090°04'2 2.5
2016-Jul-27 14:33N 29°50' W 090°03'4 4.0
2016-Jul-27 13:33N 29°53' W 089°60'2 1.7
2016-Jul-27 12:33N 29°55' W 089°59'1 1.0
2016-Jul-27 11:33N 29°56' W 089°59'5 5.5
2016-Jul-27 10:33N 29°55' W 090°05'5 5.0
2016-Jul-27 09:30N 29°56' W 090°11'1 0.0
2016-Jul-26 04:33N 29°57' W 090°10'4 4.0
2016-Jul-26 03:33N 29°55' W 090°06'5 4.7
2016-Jul-26 02:33N 29°57' W 090°02'1 1.3
2016-Jul-26 01:33N 29°56' W 090°00'0 0.0
2016-Jul-26 00:33N 29°56' W 090°00'0 0.0
2016-Jul-25 23:33N 29°56' W 090°00'0 0.0
2016-Jul-25 22:34N 29°56' W 090°00'0 0.0
2016-Jul-25 21:33N 29°56' W 090°00'0 0.0
2016-Jul-25 20:33N 29°56' W 090°00'1 0.5
2016-Jul-25 19:33N 29°56' W 089°60'1 0.6
2016-Jul-25 18:33N 29°56' W 090°00'1 0.6
2016-Jul-25 17:33N 29°56' W 089°60'0 0.0
2016-Jul-25 16:33N 29°56' W 089°60'0 0.0
2016-Jul-25 15:33N 29°56' W 089°60'0 0.0
2016-Jul-25 14:33N 29°56' W 089°60'0 0.0
2016-Jul-25 13:33N 29°56' W 089°60'0 0.0
2016-Jul-25 12:33N 29°56' W 089°60'0 0.0
2016-Jul-25 11:33N 29°56' W 089°60'0 0.0
2016-Jul-25 10:33N 29°56' W 089°60'0 0.0
2016-Jul-25 09:34N 29°56' W 089°60'0 0.0
2016-Jul-25 08:34N 29°56' W 089°60'0 0.0
2016-Jul-25 07:33N 29°56' W 089°60'0 0.0
2016-Jul-25 06:34N 29°56' W 089°60'0 0.0
2016-Jul-25 05:33N 29°56' W 089°60'0 0.0
2016-Jul-25 04:34N 29°56' W 089°60'0 0.0
2016-Jul-25 03:33N 29°56' W 089°60'0 0.0
2016-Jul-25 02:33N 29°56' W 089°60'0 0.0
2016-Jul-25 01:33N 29°56' W 089°60'0 0.0
2016-Jul-25 00:33N 29°56' W 089°60'0 0.0
2016-Jul-24 23:34N 29°56' W 089°60'0 0.0
2016-Jul-24 22:34N 29°56' W 089°60'0 0.0
2016-Jul-24 21:34N 29°56' W 089°60'0 0.0
2016-Jul-24 20:33N 29°56' W 089°60'0 0.0
2016-Jul-24 19:33N 29°56' W 089°60'0 0.0
2016-Jul-24 18:34N 29°56' W 089°60'0 0.0
2016-Jul-24 17:19N 29°56' W 089°60'0 0.0
2016-Jul-24 16:32N 29°56' W 089°60'0 0.0
2016-Jul-24 15:34N 29°56' W 089°60'0 0.0
2016-Jul-24 14:33N 29°56' W 089°60'0 0.0
2016-Jul-24 13:33N 29°56' W 089°60'0 0.0
2016-Jul-24 12:34N 29°56' W 089°60'0 0.0
2016-Jul-24 11:33N 29°56' W 089°60'0 0.0
2016-Jul-24 10:33N 29°56' W 089°60'0 0.0
2016-Jul-24 09:33N 29°56' W 089°60'0 0.0
2016-Jul-24 08:33N 29°56' W 089°60'0 0.0
2016-Jul-24 07:33N 29°56' W 089°60'0 0.0
2016-Jul-24 06:33N 29°56' W 089°60'0 0.0
2016-Jul-24 05:33N 29°56' W 089°60'0 0.0
2016-Jul-24 04:33N 29°56' W 089°60'0 0.0
2016-Jul-24 03:33N 29°56' W 089°60'0 0.0
2016-Jul-24 02:33N 29°56' W 089°60'0 0.0
2016-Jul-24 01:34N 29°56' W 089°60'0 0.0
2016-Jul-24 00:34N 29°56' W 089°60'0 0.0
2016-Jul-23 23:34N 29°56' W 089°60'0 0.0
2016-Jul-23 22:33N 29°56' W 089°60'0 0.0
2016-Jul-23 21:33N 29°56' W 089°60'0 0.0
2016-Jul-23 20:33N 29°56' W 089°60'0 0.0
2016-Jul-23 19:33N 29°56' W 089°60'0 0.0
2016-Jul-23 18:34N 29°56' W 089°60'0 0.0
2016-Jul-23 17:34N 29°56' W 089°60'0 0.0
2016-Jul-23 16:33N 29°56' W 089°60'0 0.0
2016-Jul-23 15:33N 29°56' W 089°60'0 0.0
2016-Jul-23 14:33N 29°56' W 089°60'1 0.5
2016-Jul-23 13:34N 29°56' W 090°00'0 0.5
2016-Jul-23 12:33N 29°56' W 089°60'0 0.0
2016-Jul-23 11:34N 29°56' W 089°60'0 0.0
2016-Jul-23 10:33N 29°56' W 089°60'0 0.0
2016-Jul-23 09:33N 29°56' W 089°60'0 0.0
2016-Jul-23 08:33N 29°56' W 089°60'0 0.0
2016-Jul-23 07:33N 29°56' W 089°60'0 0.0
2016-Jul-23 06:33N 29°56' W 089°60'0 0.0
2016-Jul-23 04:34N 29°56' W 089°60'0 0.0
2016-Jul-23 03:34N 29°56' W 089°60'0 0.0
2016-Jul-23 02:34N 29°56' W 089°60'0 0.0
2016-Jul-23 01:34N 29°56' W 089°60'0 0.0
2016-Jul-23 00:34N 29°56' W 089°60'1 0.8
2016-Jul-22 23:34N 29°56' W 089°59'1 1.1
2016-Jul-22 22:33N 29°55' W 089°59'0 0.0
2016-Jul-22 21:33N 29°55' W 089°59'0 0.0
2016-Jul-22 20:33N 29°55' W 089°59'0 0.0
2016-Jul-22 19:33N 29°55' W 089°59'3 2.5
2016-Jul-22 18:33N 29°53' W 090°00'0 0.0
2016-Jul-22 17:33N 29°53' W 090°00'2 1.6
2016-Jul-22 16:33N 29°51' W 090°01'2 1.6
2016-Jul-22 15:34N 29°50' W 090°03'1 0.6
2016-Jul-22 14:33N 29°50' W 090°03'0 0.0
2016-Jul-22 13:33N 29°50' W 090°03'2 2.0
2016-Jul-22 12:29N 29°48' W 090°04'3 3.1
2016-Jul-22 11:27N 29°46' W 090°07'22 3.2
2016-Jul-22 04:31N 29°33' W 090°28'5 5.2
2016-Jul-22 03:33N 29°34' W 090°34'5 4.8
2016-Jul-22 02:32N 29°36' W 090°39'3 3.4
2016-Jul-22 01:33N 29°36' W 090°43'4 4.2
2016-Jul-22 00:34N 29°33' W 090°45'5 5.0
2016-Jul-21 23:33N 29°32' W 090°51'6 5.7
2016-Jul-21 22:30N 29°35' W 090°57'37 3.6
2016-Jul-21 12:19N 29°46' W 091°38'4 4.9
2016-Jul-21 11:27N 29°46' W 091°42'9 4.1
2016-Jul-21 09:15N 29°51' W 091°51'4 5.7
2016-Jul-21 08:34N 29°51' W 091°56'6 5.6
2016-Jul-21 07:33N 29°49' W 092°02'5 5.3
2016-Jul-21 06:33N 29°47' W 092°08'5 4.8
2016-Jul-21 05:33N 29°47' W 092°13'5 4.5
2016-Jul-21 04:33N 29°50' W 092°18'4 4.4
2016-Jul-21 03:33N 29°52' W 092°22'1 1.0
2016-Jul-21 02:34N 29°53' W 092°23'2 1.6
2016-Jul-21 01:34N 29°53' W 092°25'25 5.0
2016-Jul-20 20:32N 29°57' W 092°53'5 4.9
2016-Jul-20 19:33N 29°56' W 092°59'5 5.0
2016-Jul-20 18:33N 29°56' W 093°05'5 4.7
2016-Jul-20 17:34N 29°57' W 093°10'5 5.0
2016-Jul-20 16:33N 30°00' W 093°14'5 4.6
2016-Jul-20 15:33N 30°04' W 093°16'3 3.0
2016-Jul-20 14:34N 30°05' W 093°19'4 3.9
2016-Jul-20 13:33N 30°04' W 093°23'5 5.2
2016-Jul-20 12:33N 30°04' W 093°29'5 5.0
2016-Jul-20 11:34N 30°04' W 093°35'3 2.8
2016-Jul-20 10:33N 30°04' W 093°38'5 5.4
2016-Jul-20 09:34N 30°02' W 093°44'6 5.7
2016-Jul-20 08:30N 29°58' W 093°50'  
Track history (hours):
 
Tides and Currents Weather Stations Pressure Air Temp Water Temp Dewpoint Dewpoint Depression Visibility Wind Speed Wind Dir Waves Ship Positions

George Allen

Owner: Blessey Enterprises, Inc., Harahan, LA. More information available from US FCC via Universal Licensing System and Coast Guard Vessel Documentation Center.

Last reported at 2016-Jul-29 20:16 UTC. Time now 2016-Jul-30 22:43 UTC.
Position N 29°53' W 093°56'.

Length 23 m.

Type: Towing. MMSI: 367508440.

Date/timePositionNaut miles runAvg speedWind from/ knotsBaromVisibWave heightAir tempDewpointWater temp
2016-Jul-29 20:16N 29°53' W 093°56'5 6.9
2016-Jul-29 19:33N 29°56' W 093°52'6 5.1
2016-Jul-29 18:23N 29°60' W 093°46'5 5.6
2016-Jul-29 17:33N 30°03' W 093°43'5 5.2
2016-Jul-29 16:33N 30°04' W 093°37'5 5.3
2016-Jul-29 15:33N 30°04' W 093°31'5 5.3
2016-Jul-29 14:33N 30°04' W 093°25'4 4.1
2016-Jul-29 13:34N 30°05' W 093°20'3 3.0
2016-Jul-29 12:33N 30°05' W 093°17'2 2.0
2016-Jul-29 11:33N 30°03' W 093°16'4 4.3
2016-Jul-29 10:33N 29°59' W 093°13'4 4.4
2016-Jul-29 09:33N 29°56' W 093°09'5 4.5
2016-Jul-29 08:33N 29°56' W 093°04'5 5.1
2016-Jul-29 07:33N 29°56' W 092°58'3 3.0
2016-Jul-29 06:33N 29°56' W 092°55'5 4.7
2016-Jul-29 05:33N 29°58' W 092°50'3 2.9
2016-Jul-29 04:33N 29°58' W 092°46'4 4.2
2016-Jul-29 03:33N 29°57' W 092°42'5 4.9
2016-Jul-29 02:33N 29°55' W 092°36'10 4.9
2016-Jul-29 00:33N 29°53' W 092°25'4 4.3
2016-Jul-28 23:33N 29°51' W 092°21'3 2.8
2016-Jul-28 22:33N 29°50' W 092°18'4 4.4
2016-Jul-28 21:33N 29°48' W 092°14'4 3.8
2016-Jul-28 20:33N 29°47' W 092°09'5 5.0
2016-Jul-28 19:33N 29°48' W 092°04'5 4.9
2016-Jul-28 18:33N 29°50' W 091°59'5 5.0
2016-Jul-28 17:33N 29°51' W 091°53'5 4.3
2016-Jul-28 16:25N 29°47' W 091°49'52 4.3
2016-Jul-28 04:21N 29°32' W 090°51'4 4.7
2016-Jul-28 03:33N 29°32' W 090°47'4 3.8
2016-Jul-28 02:33N 29°34' W 090°43'3 3.0
2016-Jul-28 01:33N 29°36' W 090°41'5 4.6
2016-Jul-28 00:33N 29°35' W 090°36'24 3.8
2016-Jul-27 18:11N 29°43' W 090°09'2 3.6
2016-Jul-27 17:32N 29°45' W 090°08'4 3.7
2016-Jul-27 16:26N 29°47' W 090°04'1 1.3
2016-Jul-27 15:30N 29°48' W 090°04'2 2.5
2016-Jul-27 14:33N 29°50' W 090°03'4 4.0
2016-Jul-27 13:33N 29°53' W 089°60'2 1.7
2016-Jul-27 12:33N 29°55' W 089°59'1 1.0
2016-Jul-27 11:33N 29°56' W 089°59'5 5.5
2016-Jul-27 10:33N 29°55' W 090°05'5 5.0
2016-Jul-27 09:30N 29°56' W 090°11'1 0.0
2016-Jul-26 04:33N 29°57' W 090°10'4 4.0
2016-Jul-26 03:33N 29°55' W 090°06'5 4.7
2016-Jul-26 02:33N 29°57' W 090°02'1 1.3
2016-Jul-26 01:33N 29°56' W 090°00'0 0.0
2016-Jul-26 00:33N 29°56' W 090°00'0 0.0
2016-Jul-25 23:33N 29°56' W 090°00'0 0.0
2016-Jul-25 22:34N 29°56' W 090°00'0 0.0
2016-Jul-25 21:33N 29°56' W 090°00'0 0.0
2016-Jul-25 20:33N 29°56' W 090°00'1 0.5
2016-Jul-25 19:33N 29°56' W 089°60'1 0.6
2016-Jul-25 18:33N 29°56' W 090°00'1 0.6
2016-Jul-25 17:33N 29°56' W 089°60'0 0.0
2016-Jul-25 16:33N 29°56' W 089°60'0 0.0
2016-Jul-25 15:33N 29°56' W 089°60'0 0.0
2016-Jul-25 14:33N 29°56' W 089°60'0 0.0
2016-Jul-25 13:33N 29°56' W 089°60'0 0.0
2016-Jul-25 12:33N 29°56' W 089°60'0 0.0
2016-Jul-25 11:33N 29°56' W 089°60'0 0.0
2016-Jul-25 10:33N 29°56' W 089°60'0 0.0
2016-Jul-25 09:34N 29°56' W 089°60'0 0.0
2016-Jul-25 08:34N 29°56' W 089°60'0 0.0
2016-Jul-25 07:33N 29°56' W 089°60'0 0.0
2016-Jul-25 06:34N 29°56' W 089°60'0 0.0
2016-Jul-25 05:33N 29°56' W 089°60'0 0.0
2016-Jul-25 04:34N 29°56' W 089°60'0 0.0
2016-Jul-25 03:33N 29°56' W 089°60'0 0.0
2016-Jul-25 02:33N 29°56' W 089°60'0 0.0
2016-Jul-25 01:33N 29°56' W 089°60'0 0.0
2016-Jul-25 00:33N 29°56' W 089°60'0 0.0
2016-Jul-24 23:34N 29°56' W 089°60'0 0.0
2016-Jul-24 22:34N 29°56' W 089°60'0 0.0
2016-Jul-24 21:34N 29°56' W 089°60'0 0.0
2016-Jul-24 20:33N 29°56' W 089°60'0 0.0
2016-Jul-24 19:33N 29°56' W 089°60'0 0.0
2016-Jul-24 18:34N 29°56' W 089°60'0 0.0
2016-Jul-24 17:19N 29°56' W 089°60'0 0.0
2016-Jul-24 16:32N 29°56' W 089°60'0 0.0
2016-Jul-24 15:34N 29°56' W 089°60'0 0.0
2016-Jul-24 14:33N 29°56' W 089°60'0 0.0
2016-Jul-24 13:33N 29°56' W 089°60'0 0.0
2016-Jul-24 12:34N 29°56' W 089°60'0 0.0
2016-Jul-24 11:33N 29°56' W 089°60'0 0.0
2016-Jul-24 10:33N 29°56' W 089°60'0 0.0
2016-Jul-24 09:33N 29°56' W 089°60'0 0.0
2016-Jul-24 08:33N 29°56' W 089°60'0 0.0
2016-Jul-24 07:33N 29°56' W 089°60'0 0.0
2016-Jul-24 06:33N 29°56' W 089°60'0 0.0
2016-Jul-24 05:33N 29°56' W 089°60'0 0.0
2016-Jul-24 04:33N 29°56' W 089°60'0 0.0
2016-Jul-24 03:33N 29°56' W 089°60'0 0.0
2016-Jul-24 02:33N 29°56' W 089°60'0 0.0
2016-Jul-24 01:34N 29°56' W 089°60'0 0.0
2016-Jul-24 00:34N 29°56' W 089°60'0 0.0
2016-Jul-23 23:34N 29°56' W 089°60'0 0.0
2016-Jul-23 22:33N 29°56' W 089°60'0 0.0
2016-Jul-23 21:33N 29°56' W 089°60'0 0.0
2016-Jul-23 20:33N 29°56' W 089°60'0 0.0
2016-Jul-23 19:33N 29°56' W 089°60'0 0.0
2016-Jul-23 18:34N 29°56' W 089°60'0 0.0
2016-Jul-23 17:34N 29°56' W 089°60'0 0.0
2016-Jul-23 16:33N 29°56' W 089°60'0 0.0
2016-Jul-23 15:33N 29°56' W 089°60'0 0.0
2016-Jul-23 14:33N 29°56' W 089°60'1 0.5
2016-Jul-23 13:34N 29°56' W 090°00'0 0.5
2016-Jul-23 12:33N 29°56' W 089°60'0 0.0
2016-Jul-23 11:34N 29°56' W 089°60'0 0.0
2016-Jul-23 10:33N 29°56' W 089°60'0 0.0
2016-Jul-23 09:33N 29°56' W 089°60'0 0.0
2016-Jul-23 08:33N 29°56' W 089°60'0 0.0
2016-Jul-23 07:33N 29°56' W 089°60'0 0.0
2016-Jul-23 06:33N 29°56' W 089°60'0 0.0
2016-Jul-23 04:34N 29°56' W 089°60'0 0.0
2016-Jul-23 03:34N 29°56' W 089°60'0 0.0
2016-Jul-23 02:34N 29°56' W 089°60'0 0.0
2016-Jul-23 01:34N 29°56' W 089°60'0 0.0
2016-Jul-23 00:34N 29°56' W 089°60'1 0.8
2016-Jul-22 23:34N 29°56' W 089°59'1 1.1
2016-Jul-22 22:33N 29°55' W 089°59'0 0.0
2016-Jul-22 21:33N 29°55' W 089°59'0 0.0
2016-Jul-22 20:33N 29°55' W 089°59'0 0.0
2016-Jul-22 19:33N 29°55' W 089°59'3 2.5
2016-Jul-22 18:33N 29°53' W 090°00'0 0.0
2016-Jul-22 17:33N 29°53' W 090°00'2 1.6
2016-Jul-22 16:33N 29°51' W 090°01'2 1.6
2016-Jul-22 15:34N 29°50' W 090°03'1 0.6
2016-Jul-22 14:33N 29°50' W 090°03'0 0.0
2016-Jul-22 13:33N 29°50' W 090°03'2 2.0
2016-Jul-22 12:29N 29°48' W 090°04'3 3.1
2016-Jul-22 11:27N 29°46' W 090°07'22 3.2
2016-Jul-22 04:31N 29°33' W 090°28'5 5.2
2016-Jul-22 03:33N 29°34' W 090°34'5 4.8
2016-Jul-22 02:32N 29°36' W 090°39'3 3.4
2016-Jul-22 01:33N 29°36' W 090°43'4 4.2
2016-Jul-22 00:34N 29°33' W 090°45'5 5.0
2016-Jul-21 23:33N 29°32' W 090°51'6 5.7
2016-Jul-21 22:30N 29°35' W 090°57'37 3.6
2016-Jul-21 12:19N 29°46' W 091°38'4 4.9
2016-Jul-21 11:27N 29°46' W 091°42'9 4.1
2016-Jul-21 09:15N 29°51' W 091°51'4 5.7
2016-Jul-21 08:34N 29°51' W 091°56'6 5.6
2016-Jul-21 07:33N 29°49' W 092°02'5 5.3
2016-Jul-21 06:33N 29°47' W 092°08'5 4.8
2016-Jul-21 05:33N 29°47' W 092°13'5 4.5
2016-Jul-21 04:33N 29°50' W 092°18'4 4.4
2016-Jul-21 03:33N 29°52' W 092°22'1 1.0
2016-Jul-21 02:34N 29°53' W 092°23'2 1.6
2016-Jul-21 01:34N 29°53' W 092°25'25 5.0
2016-Jul-20 20:32N 29°57' W 092°53'5 4.9
2016-Jul-20 19:33N 29°56' W 092°59'5 5.0
2016-Jul-20 18:33N 29°56' W 093°05'5 4.7
2016-Jul-20 17:34N 29°57' W 093°10'5 5.0
2016-Jul-20 16:33N 30°00' W 093°14'5 4.6
2016-Jul-20 15:33N 30°04' W 093°16'3 3.0
2016-Jul-20 14:34N 30°05' W 093°19'4 3.9
2016-Jul-20 13:33N 30°04' W 093°23'5 5.2
2016-Jul-20 12:33N 30°04' W 093°29'5 5.0
2016-Jul-20 11:34N 30°04' W 093°35'3 2.8
2016-Jul-20 10:33N 30°04' W 093°38'5 5.4
2016-Jul-20 09:34N 30°02' W 093°44'6 5.7
2016-Jul-20 08:30N 29°58' W 093°50'  

Dump ship's entire track history